Seatac, WA (98158)

9:47 PM PDT on October 21, 2014 (GMT -0700)
Seattle-Tacoma International | Change Station
CLOSE
Current Station
Airport
Location: Seattle,
Elevation: 433 ft
Nearby Weather Stations

Elev 433 ft 47.44 °N, 122.31 °W | Updated 54 minutes ago

Mostly Cloudy
Mostly Cloudy
59 °F
Feels Like 59 °F
N
14
Wind Variable Wind from South

Today
High -- | Low -- °F
--% Chance of Precip.
Yesterday
High -- | Low -- °F
Precip. -- in
7:36 AM 6:10 PM
Waning Crescent, 3% visible
Pressure 29.83 in
Visibility 10.0 miles
Clouds Mostly Cloudy 7000 ft
Dew Point 45 °F
Humidity 60%
Rainfall 0.04 in
Snow Depth Not available.
UV 0 out of 12
Pollen .40 out of 12
Air Quality Not available.
Flu Activity Sporadic
METAR KSEA 220353Z 17012KT 10SM BKN070 15/07 A2981 RMK AO2 SLP102 T01500072

More Conditions Fewer Conditions

Pressure 29.83 in
Visibility 10.0 miles
Clouds Mostly Cloudy 7000 ft
Dew Point 45 °F
Humidity 60%
Rainfall 0.04 in
Snow Depth Not available.
UV 0 out of 12
Pollen .40 out of 12
Air Quality Not available.
Flu Activity Sporadic
METAR KSEA 220353Z 17012KT 10SM BKN070 15/07 A2981 RMK AO2 SLP102 T01500072

More Conditions Fewer Conditions

10-Day Weather Forecast

Almanac

Astronomy

Oct. 21, 2014 Rise Set
Actual Time 7:36 AM PDT 6:10 PM PDT
Civil Twilight 7:05 AM PDT 6:41 PM PDT
Nautical Twilight 6:29 AM PDT 7:17 PM PDT
Astronomical Twilight 5:54 AM PDT 7:52 PM PDT
Moon 5:17 AM PDT (10/21) 5:13 PM PDT (10/21)
Length of Visible Light 11h 36m
Length of Day
10h 33m
Tomorrow will be 3m 15s shorter.
Waning Crescent, 3% of the Moon is Illuminated
Oct 22
Waning Crescent
Oct 23
New
Oct 30
First Quarter
Nov 6
Full
Nov 14
Last Quarter

Yesterday's Extremes

State Highs State Lows

Community

WunderPhotos

Upload Photos

1,763,882 photos uploaded!

Nearby

Air Quality

  Air Quality AQ Index Pollutant
Tuesday Good
PM2.5
Wednesday Good
PM2.5
Thursday Good
PM2.5
Friday Good
PM2.5
Saturday Good
PM2.5

Snow Depth

Station Depth Elevation
Mount Gardner 0 in 3000 ft
Alpine Meadows 0 in 3500 ft
Skookum Creek 0 in 3920 ft
Meadows Pass 1 in 3500 ft
Huckleberry Creek 0 in 2000 ft

Earthquake Activity

City Distance Mag. Time & Date
No recent earthquake activity has been reported nearby.
Minimum magnitude displayed is 2.5.

Coastal Water Temperatures

Place Temperature
Port Townsend, WA 53.1 °F
Seattle, WA 55.0 °F
Friday Harbor, WA 51.1 °F
Tacoma, WA 55.0 °F

Nearby Weather Stations